createdAt,value
2022-10-22T12:01:52.290Z,0.75
2022-10-22T12:21:41.116Z,1.52
2022-10-22T12:31:03.748Z,1.10
2022-10-22T12:58:17.369Z,1.33
2022-10-22T13:06:29.763Z,2.03
2022-10-22T13:08:04.395Z,1.17
2022-10-22T13:10:20.706Z,1.20
2022-10-22T13:12:05.853Z,1.05
2022-10-22T13:13:40.355Z,0.80
2022-10-22T13:15:21.322Z,1.10
2022-10-22T13:17:15.101Z,1.33
2022-10-22T13:18:49.400Z,1.77
2022-10-22T13:20:25.551Z,1.67
2022-10-22T13:21:59.785Z,1.25
2022-10-22T13:23:33.192Z,1.02
2022-10-22T13:25:13.718Z,0.85
2022-10-22T13:28:56.194Z,1.05
2022-10-22T13:30:30.273Z,1.10
2022-10-22T13:32:05.039Z,1.60
2022-10-22T13:33:38.476Z,0.73
2022-10-22T13:35:16.265Z,0.98
2022-10-22T13:36:48.496Z,1.15
2022-10-22T13:38:20.980Z,1.50
2022-10-22T13:39:52.624Z,1.52
2022-10-22T13:41:29.284Z,1.65
2022-10-22T13:43:01.142Z,1.00
2022-10-22T13:44:32.823Z,1.25
2022-10-22T13:46:09.505Z,1.00
2022-10-22T13:47:42.337Z,0.93
2022-10-22T13:50:45.733Z,1.55
2022-10-22T13:52:22.618Z,0.93
2022-10-22T13:53:54.333Z,1.17
2022-10-22T13:55:29.784Z,1.00
2022-10-22T13:57:01.478Z,1.10
2022-10-22T13:58:33.085Z,1.08
2022-10-22T14:00:05.062Z,0.82
2022-10-22T14:01:43.723Z,1.63
2022-10-22T14:03:16.378Z,1.30
2022-10-22T14:06:21.131Z,1.10
2022-10-22T14:07:52.859Z,1.15
2022-10-22T14:09:24.534Z,1.10
2022-10-22T14:10:56.199Z,1.00
2022-10-22T14:12:28.583Z,1.30
2022-10-22T14:14:00.202Z,1.33
2022-10-22T14:15:31.790Z,1.48
2022-10-22T14:17:03.394Z,1.02
2022-10-22T14:18:35.773Z,0.90
2022-10-22T14:20:07.491Z,2.17
2022-10-22T14:21:39.161Z,1.25
2022-10-22T14:23:13.416Z,1.38
2022-10-22T14:24:45.623Z,1.00
2022-10-22T14:26:33.109Z,0.80
2022-10-22T14:28:05.995Z,0.70
2022-10-22T14:29:37.837Z,1.20
2022-10-22T14:31:10.942Z,0.80
2022-10-22T14:32:42.876Z,1.40
2022-10-22T14:34:15.704Z,0.90
2022-10-22T14:35:50.891Z,1.05
2022-10-22T14:37:23.772Z,1.23
2022-10-22T14:38:55.367Z,1.13
2022-10-22T14:40:27.001Z,0.80
2022-10-22T14:41:58.605Z,0.90
2022-10-22T14:43:31.425Z,1.15
2022-10-22T14:45:03.115Z,1.05
2022-10-22T14:46:35.893Z,1.00
2022-10-22T14:49:40.058Z,1.25
2022-10-22T14:51:15.476Z,1.17
2022-10-22T14:52:47.479Z,1.20
2022-10-22T14:54:19.166Z,1.17
2022-10-22T14:55:51.678Z,0.90
2022-10-22T14:57:23.272Z,0.75
2022-10-22T14:58:54.875Z,0.80
2022-10-22T15:00:26.545Z,1.17
2022-10-22T15:01:59.222Z,0.95
2022-10-22T15:03:31.579Z,0.90
2022-10-22T15:05:04.928Z,1.00
2022-10-22T15:06:36.548Z,1.13
2022-10-22T15:08:08.133Z,1.20
2022-10-22T15:09:39.774Z,1.30
2022-10-22T15:11:12.462Z,0.88
2022-10-22T15:14:16.957Z,0.68
2022-10-22T15:15:50.190Z,1.10
2022-10-22T15:17:23.526Z,1.10
2022-10-22T15:18:57.905Z,1.10
2022-10-22T15:20:31.471Z,1.48
2022-10-22T15:22:04.320Z,1.10
2022-10-22T15:23:36.571Z,1.27
2022-10-22T15:25:08.613Z,1.58
2022-10-22T15:26:40.286Z,1.17
2022-10-22T15:28:11.904Z,1.10
2022-10-22T15:29:43.835Z,1.40
2022-10-22T15:31:15.882Z,1.30
2022-10-22T15:32:47.646Z,1.30
2022-10-22T15:34:20.392Z,1.08
2022-10-22T15:37:23.611Z,1.70
2022-10-22T15:38:55.240Z,1.50
2022-10-22T15:40:26.899Z,1.45
2022-10-22T15:42:00.441Z,1.65
2022-10-22T15:43:32.056Z,1.42
2022-10-22T15:45:03.845Z,1.67
2022-10-22T15:46:35.969Z,1.85
2022-10-22T15:48:07.694Z,1.92
2022-10-22T15:49:39.724Z,2.72
2022-10-22T15:51:12.260Z,2.38
2022-10-22T15:52:43.862Z,2.42
2022-10-22T15:54:19.800Z,2.40
2022-10-22T15:55:55.406Z,2.88
2022-10-22T15:58:59.718Z,2.28
2022-10-22T16:02:10.542Z,2.58
2022-10-22T16:03:42.158Z,2.50
2022-10-22T16:05:13.810Z,2.42
2022-10-22T16:06:46.626Z,2.42
2022-10-22T16:08:20.060Z,2.28
2022-10-22T16:09:54.991Z,2.95
2022-10-22T16:11:27.419Z,2.67
2022-10-22T16:12:59.073Z,2.08
2022-10-22T16:14:30.725Z,2.10
2022-10-22T16:16:04.587Z,1.92
2022-10-22T16:17:36.236Z,2.85
2022-10-22T16:19:07.809Z,2.65
2022-10-22T16:20:40.004Z,2.03
2022-10-22T16:22:13.911Z,2.35
2022-10-22T16:23:45.677Z,2.25
2022-10-22T16:25:17.323Z,2.25
2022-10-22T16:26:49.224Z,2.75
2022-10-22T16:28:20.925Z,2.08
2022-10-22T16:29:52.620Z,2.28
2022-10-22T16:31:24.421Z,2.70
2022-10-22T16:32:56.060Z,2.80
2022-10-22T16:34:28.392Z,2.50
2022-10-22T16:35:59.972Z,2.65
2022-10-22T16:37:31.688Z,3.00
2022-10-22T16:39:03.775Z,3.67
2022-10-22T16:40:35.424Z,3.10
2022-10-22T16:42:07.117Z,3.47
2022-10-22T16:43:39.104Z,3.97
2022-10-22T16:45:11.238Z,6.57
2022-10-22T16:46:42.979Z,5.10
2022-10-22T16:48:14.827Z,4.57
2022-10-22T16:49:46.449Z,3.93
2022-10-22T16:51:21.825Z,6.50
2022-10-22T16:52:53.417Z,4.78
2022-10-22T16:54:25.053Z,5.30
2022-10-22T16:55:56.728Z,8.40
2022-10-22T16:57:28.908Z,8.85
2022-10-22T16:59:00.499Z,8.32
2022-10-22T17:00:32.757Z,7.18
2022-10-22T17:03:56.376Z,7.32
2022-10-22T17:05:27.986Z,6.53
2022-10-22T17:06:59.579Z,7.32
2022-10-22T17:08:32.118Z,6.45
2022-10-22T17:10:04.795Z,5.05
2022-10-22T17:11:39.182Z,5.88
2022-10-22T17:13:12.895Z,5.50
2022-10-22T17:14:44.485Z,4.50
2022-10-22T17:16:17.637Z,4.22
2022-10-22T17:17:52.665Z,4.75
2022-10-22T17:19:24.333Z,3.78
2022-10-22T17:20:56.440Z,4.22
2022-10-22T17:22:28.167Z,5.43
2022-10-22T17:23:59.770Z,12.27
2022-10-22T17:25:44.350Z,9.63
2022-10-22T17:27:15.975Z,13.98
2022-10-22T17:28:48.029Z,17.83
2022-10-22T17:30:23.484Z,12.18
2022-10-22T17:31:58.130Z,12.40
2022-10-22T17:33:30.025Z,12.20
2022-10-22T17:35:01.692Z,12.10
2022-10-22T17:36:35.865Z,12.02
2022-10-22T17:38:07.914Z,13.82
2022-10-22T17:39:49.934Z,11.68
2022-10-22T17:41:23.286Z,10.38
2022-10-22T17:42:54.958Z,7.80
2022-10-22T17:44:26.518Z,5.15
2022-10-22T17:46:07.490Z,5.88
2022-10-22T17:47:39.310Z,6.13
2022-10-22T17:49:18.683Z,5.95
2022-10-22T17:50:51.007Z,6.18
2022-10-22T18:03:36.131Z,5.88
2022-10-22T18:05:56.901Z,4.72
2022-10-22T18:59:09.916Z,5.78
2022-10-22T19:02:01.593Z,6.65
2022-10-22T19:09:48.332Z,14.95
2022-10-22T19:27:53.729Z,29.05
2022-10-22T19:29:35.381Z,30.15
2022-10-22T19:31:18.296Z,27.88
2022-10-22T19:33:29.309Z,26.70
2022-10-22T19:37:08.371Z,25.02
2022-10-22T19:38:41.913Z,21.10
2022-10-22T19:40:35.372Z,16.42
2022-10-22T19:42:07.976Z,14.02
2022-10-22T19:44:34.197Z,7.75
2022-10-22T19:46:36.154Z,7.45
2022-10-22T19:53:24.325Z,7.18
2022-10-22T19:57:48.829Z,6.20
2022-10-22T20:03:38.146Z,7.60
2022-10-22T22:18:25.344Z,3.67
